sensor_id;sensor_type;location;lat;lon;timestamp;temperature;humidity
16301;DHT22;8258;51.020;4.248;2022-07-10T00:00:44;13.30;99.90
16301;DHT22;8258;51.020;4.248;2022-07-10T00:03:12;13.10;99.90
16301;DHT22;8258;51.020;4.248;2022-07-10T00:05:39;13.00;99.90
16301;DHT22;8258;51.020;4.248;2022-07-10T00:08:06;13.00;99.90
16301;DHT22;8258;51.020;4.248;2022-07-10T00:10:33;13.00;99.90
16301;DHT22;8258;51.020;4.248;2022-07-10T00:13:00;13.00;99.90
16301;DHT22;8258;51.020;4.248;2022-07-10T00:15:27;13.10;99.90
16301;DHT22;8258;51.020;4.248;2022-07-10T00:17:57;13.20;99.90
16301;DHT22;8258;51.020;4.248;2022-07-10T00:20:25;13.20;99.90
16301;DHT22;8258;51.020;4.248;2022-07-10T00:22:52;13.20;99.90
16301;DHT22;8258;51.020;4.248;2022-07-10T00:25:19;13.20;99.90
16301;DHT22;8258;51.020;4.248;2022-07-10T00:27:46;13.20;99.90
16301;DHT22;8258;51.020;4.248;2022-07-10T00:30:13;13.20;99.90
16301;DHT22;8258;51.020;4.248;2022-07-10T00:32:40;13.30;99.90
16301;DHT22;8258;51.020;4.248;2022-07-10T00:35:08;13.10;99.90
16301;DHT22;8258;51.020;4.248;2022-07-10T00:37:36;13.00;99.90
16301;DHT22;8258;51.020;4.248;2022-07-10T00:40:04;12.90;99.90
16301;DHT22;8258;51.020;4.248;2022-07-10T00:42:31;12.90;99.90
16301;DHT22;8258;51.020;4.248;2022-07-10T00:44:59;12.90;99.90
16301;DHT22;8258;51.020;4.248;2022-07-10T00:47:26;13.00;99.90
16301;DHT22;8258;51.020;4.248;2022-07-10T00:49:53;12.90;99.90
16301;DHT22;8258;51.020;4.248;2022-07-10T00:52:20;13.00;99.90
16301;DHT22;8258;51.020;4.248;2022-07-10T00:54:49;13.00;99.90
16301;DHT22;8258;51.020;4.248;2022-07-10T00:57:17;12.90;99.90
16301;DHT22;8258;51.020;4.248;2022-07-10T00:59:45;12.90;99.90
16301;DHT22;8258;51.020;4.248;2022-07-10T01:02:13;12.80;99.90
16301;DHT22;8258;51.020;4.248;2022-07-10T01:04:41;12.70;99.90
16301;DHT22;8258;51.020;4.248;2022-07-10T01:07:08;12.60;99.90
16301;DHT22;8258;51.020;4.248;2022-07-10T01:09:35;12.50;99.90
16301;DHT22;8258;51.020;4.248;2022-07-10T01:12:05;12.40;99.90
16301;DHT22;8258;51.020;4.248;2022-07-10T01:14:32;12.40;99.90
16301;DHT22;8258;51.020;4.248;2022-07-10T01:17:01;12.40;99.90
16301;DHT22;8258;51.020;4.248;2022-07-10T01:19:28;12.40;99.90
16301;DHT22;8258;51.020;4.248;2022-07-10T01:21:56;12.40;99.90
16301;DHT22;8258;51.020;4.248;2022-07-10T01:24:23;12.40;99.90
16301;DHT22;8258;51.020;4.248;2022-07-10T01:26:50;12.40;99.90
16301;DHT22;8258;51.020;4.248;2022-07-10T01:29:17;12.40;99.90
16301;DHT22;8258;51.020;4.248;2022-07-10T01:31:44;12.40;99.90
16301;DHT22;8258;51.020;4.248;2022-07-10T01:34:12;12.40;99.90
16301;DHT22;8258;51.020;4.248;2022-07-10T01:36:39;12.40;99.90
16301;DHT22;8258;51.020;4.248;2022-07-10T01:39:08;12.40;99.90
16301;DHT22;8258;51.020;4.248;2022-07-10T01:41:35;12.40;99.90
16301;DHT22;8258;51.020;4.248;2022-07-10T01:44:02;12.40;99.90
16301;DHT22;8258;51.020;4.248;2022-07-10T01:46:29;12.40;99.90
16301;DHT22;8258;51.020;4.248;2022-07-10T01:48:56;12.50;99.90
16301;DHT22;8258;51.020;4.248;2022-07-10T01:51:23;12.50;99.90
16301;DHT22;8258;51.020;4.248;2022-07-10T01:53:50;12.40;99.90
16301;DHT22;8258;51.020;4.248;2022-07-10T01:56:18;12.40;99.90
16301;DHT22;8258;51.020;4.248;2022-07-10T01:58:45;12.40;99.90
16301;DHT22;8258;51.020;4.248;2022-07-10T02:01:12;12.40;99.90
16301;DHT22;8258;51.020;4.248;2022-07-10T02:03:39;12.50;99.90
16301;DHT22;8258;51.020;4.248;2022-07-10T02:06:23;12.40;99.90
16301;DHT22;8258;51.020;4.248;2022-07-10T02:08:50;12.40;99.90
16301;DHT22;8258;51.020;4.248;2022-07-10T02:11:19;12.30;99.90
16301;DHT22;8258;51.020;4.248;2022-07-10T02:13:46;12.30;99.90
16301;DHT22;8258;51.020;4.248;2022-07-10T02:16:13;12.30;99.90
16301;DHT22;8258;51.020;4.248;2022-07-10T02:18:40;12.20;99.90
16301;DHT22;8258;51.020;4.248;2022-07-10T02:21:07;12.10;99.90
16301;DHT22;8258;51.020;4.248;2022-07-10T02:23:35;12.00;99.90
16301;DHT22;8258;51.020;4.248;2022-07-10T02:26:02;12.00;99.90
16301;DHT22;8258;51.020;4.248;2022-07-10T02:28:30;11.90;99.90
16301;DHT22;8258;51.020;4.248;2022-07-10T02:30:58;12.00;99.90
16301;DHT22;8258;51.020;4.248;2022-07-10T02:33:25;12.10;99.90
16301;DHT22;8258;51.020;4.248;2022-07-10T02:35:52;12.10;99.90
16301;DHT22;8258;51.020;4.248;2022-07-10T02:38:18;12.00;99.90
16301;DHT22;8258;51.020;4.248;2022-07-10T02:40:45;11.80;99.90
16301;DHT22;8258;51.020;4.248;2022-07-10T02:43:12;11.80;99.90
16301;DHT22;8258;51.020;4.248;2022-07-10T02:45:41;11.80;99.90
16301;DHT22;8258;51.020;4.248;2022-07-10T02:48:08;11.70;99.90
16301;DHT22;8258;51.020;4.248;2022-07-10T02:50:34;11.70;99.90
16301;DHT22;8258;51.020;4.248;2022-07-10T02:53:01;11.60;99.90
16301;DHT22;8258;51.020;4.248;2022-07-10T02:55:28;11.60;99.90
16301;DHT22;8258;51.020;4.248;2022-07-10T02:57:57;11.60;99.90
16301;DHT22;8258;51.020;4.248;2022-07-10T03:00:25;11.70;99.90
16301;DHT22;8258;51.020;4.248;2022-07-10T03:02:53;11.70;99.90
16301;DHT22;8258;51.020;4.248;2022-07-10T03:05:21;11.70;99.90
16301;DHT22;8258;51.020;4.248;2022-07-10T03:07:48;11.70;99.90
16301;DHT22;8258;51.020;4.248;2022-07-10T03:10:14;11.60;99.90
16301;DHT22;8258;51.020;4.248;2022-07-10T03:12:41;11.60;99.90
16301;DHT22;8258;51.020;4.248;2022-07-10T03:15:09;11.60;99.90
16301;DHT22;8258;51.020;4.248;2022-07-10T03:17:36;11.60;99.90
16301;DHT22;8258;51.020;4.248;2022-07-10T03:20:05;11.60;99.90
16301;DHT22;8258;51.020;4.248;2022-07-10T03:22:34;11.60;99.90
16301;DHT22;8258;51.020;4.248;2022-07-10T03:25:01;11.50;99.90
16301;DHT22;8258;51.020;4.248;2022-07-10T03:27:28;11.50;99.90
16301;DHT22;8258;51.020;4.248;2022-07-10T03:29:55;11.50;99.90
16301;DHT22;8258;51.020;4.248;2022-07-10T03:32:22;11.60;99.90
16301;DHT22;8258;51.020;4.248;2022-07-10T03:34:48;11.50;99.90
16301;DHT22;8258;51.020;4.248;2022-07-10T03:37:17;11.40;99.90
16301;DHT22;8258;51.020;4.248;2022-07-10T03:39:43;11.50;99.90
16301;DHT22;8258;51.020;4.248;2022-07-10T03:42:10;11.60;99.90
16301;DHT22;8258;51.020;4.248;2022-07-10T03:44:37;11.70;99.90
16301;DHT22;8258;51.020;4.248;2022-07-10T03:47:04;11.60;99.90
16301;DHT22;8258;51.020;4.248;2022-07-10T03:49:31;11.70;99.90
16301;DHT22;8258;51.020;4.248;2022-07-10T03:51:59;11.70;99.90
16301;DHT22;8258;51.020;4.248;2022-07-10T03:54:28;11.70;99.90
16301;DHT22;8258;51.020;4.248;2022-07-10T03:56:55;11.60;99.90
16301;DHT22;8258;51.020;4.248;2022-07-10T03:59:39;11.70;99.90
16301;DHT22;8258;51.020;4.248;2022-07-10T04:02:06;11.70;99.90
16301;DHT22;8258;51.020;4.248;2022-07-10T04:04:33;11.60;99.90
16301;DHT22;8258;51.020;4.248;2022-07-10T04:07:00;11.70;99.90
16301;DHT22;8258;51.020;4.248;2022-07-10T04:09:31;11.80;99.90
16301;DHT22;8258;51.020;4.248;2022-07-10T04:11:57;11.90;99.90
16301;DHT22;8258;51.020;4.248;2022-07-10T04:14:25;11.80;99.90
16301;DHT22;8258;51.020;4.248;2022-07-10T04:16:51;11.70;99.90
16301;DHT22;8258;51.020;4.248;2022-07-10T04:19:18;11.60;99.90
16301;DHT22;8258;51.020;4.248;2022-07-10T04:21:47;11.60;99.90
16301;DHT22;8258;51.020;4.248;2022-07-10T04:24:14;11.50;99.90
16301;DHT22;8258;51.020;4.248;2022-07-10T04:26:42;11.50;99.90
16301;DHT22;8258;51.020;4.248;2022-07-10T04:29:09;11.60;99.90
16301;DHT22;8258;51.020;4.248;2022-07-10T04:31:36;11.70;99.90
16301;DHT22;8258;51.020;4.248;2022-07-10T04:34:03;11.90;99.90
16301;DHT22;8258;51.020;4.248;2022-07-10T04:36:30;12.00;99.90
16301;DHT22;8258;51.020;4.248;2022-07-10T04:38:57;12.10;99.90
16301;DHT22;8258;51.020;4.248;2022-07-10T04:41:24;12.20;99.90
16301;DHT22;8258;51.020;4.248;2022-07-10T04:43:52;12.30;99.90
16301;DHT22;8258;51.020;4.248;2022-07-10T04:46:19;12.40;99.90
16301;DHT22;8258;51.020;4.248;2022-07-10T04:48:46;12.50;99.90
16301;DHT22;8258;51.020;4.248;2022-07-10T04:51:12;12.60;99.90
16301;DHT22;8258;51.020;4.248;2022-07-10T04:53:39;12.70;99.90
16301;DHT22;8258;51.020;4.248;2022-07-10T04:56:07;12.80;99.90
16301;DHT22;8258;51.020;4.248;2022-07-10T04:58:34;12.90;99.90
16301;DHT22;8258;51.020;4.248;2022-07-10T05:01:02;13.00;99.90
16301;DHT22;8258;51.020;4.248;2022-07-10T05:03:29;13.10;99.90
16301;DHT22;8258;51.020;4.248;2022-07-10T05:05:56;13.20;99.90
16301;DHT22;8258;51.020;4.248;2022-07-10T05:08:23;13.30;99.90
16301;DHT22;8258;51.020;4.248;2022-07-10T05:10:50;13.30;99.90
16301;DHT22;8258;51.020;4.248;2022-07-10T05:13:16;13.50;99.90
16301;DHT22;8258;51.020;4.248;2022-07-10T05:15:46;13.50;99.90
16301;DHT22;8258;51.020;4.248;2022-07-10T05:18:15;13.60;99.90
16301;DHT22;8258;51.020;4.248;2022-07-10T05:20:41;13.60;99.90
16301;DHT22;8258;51.020;4.248;2022-07-10T05:23:10;13.70;99.90
16301;DHT22;8258;51.020;4.248;2022-07-10T05:25:38;13.80;99.90
16301;DHT22;8258;51.020;4.248;2022-07-10T05:28:06;13.80;99.90
16301;DHT22;8258;51.020;4.248;2022-07-10T05:30:33;13.90;99.90
16301;DHT22;8258;51.020;4.248;2022-07-10T05:33:00;14.10;99.90
16301;DHT22;8258;51.020;4.248;2022-07-10T05:35:29;14.20;99.90
16301;DHT22;8258;51.020;4.248;2022-07-10T05:37:56;14.30;99.90
16301;DHT22;8258;51.020;4.248;2022-07-10T05:40:23;14.50;99.90
16301;DHT22;8258;51.020;4.248;2022-07-10T05:42:50;14.60;99.90
16301;DHT22;8258;51.020;4.248;2022-07-10T05:45:18;14.70;99.90
16301;DHT22;8258;51.020;4.248;2022-07-10T05:47:44;14.70;99.90
16301;DHT22;8258;51.020;4.248;2022-07-10T05:50:11;14.80;99.90
16301;DHT22;8258;51.020;4.248;2022-07-10T05:52:40;14.90;99.90
16301;DHT22;8258;51.020;4.248;2022-07-10T05:55:08;14.90;99.90
16301;DHT22;8258;51.020;4.248;2022-07-10T05:57:35;15.00;99.90
16301;DHT22;8258;51.020;4.248;2022-07-10T06:00:03;15.10;99.90
16301;DHT22;8258;51.020;4.248;2022-07-10T06:02:31;15.20;99.90
16301;DHT22;8258;51.020;4.248;2022-07-10T06:04:58;15.40;99.90
16301;DHT22;8258;51.020;4.248;2022-07-10T06:07:25;15.60;99.90
16301;DHT22;8258;51.020;4.248;2022-07-10T06:09:54;15.60;99.90
16301;DHT22;8258;51.020;4.248;2022-07-10T06:12:21;15.80;99.90
16301;DHT22;8258;51.020;4.248;2022-07-10T06:14:48;16.00;99.90
16301;DHT22;8258;51.020;4.248;2022-07-10T06:17:15;16.10;99.90
16301;DHT22;8258;51.020;4.248;2022-07-10T06:19:42;16.20;99.90
16301;DHT22;8258;51.020;4.248;2022-07-10T06:22:09;16.30;99.90
16301;DHT22;8258;51.020;4.248;2022-07-10T06:24:55;16.50;99.90
16301;DHT22;8258;51.020;4.248;2022-07-10T06:27:22;16.60;99.90
16301;DHT22;8258;51.020;4.248;2022-07-10T06:29:49;16.70;99.90
16301;DHT22;8258;51.020;4.248;2022-07-10T06:32:16;16.90;99.90
16301;DHT22;8258;51.020;4.248;2022-07-10T06:34:43;17.00;99.90
16301;DHT22;8258;51.020;4.248;2022-07-10T06:37:10;17.20;99.90
16301;DHT22;8258;51.020;4.248;2022-07-10T06:39:37;17.20;99.90
16301;DHT22;8258;51.020;4.248;2022-07-10T06:42:06;17.50;99.90
16301;DHT22;8258;51.020;4.248;2022-07-10T06:44:33;17.60;99.90
16301;DHT22;8258;51.020;4.248;2022-07-10T06:47:00;17.70;99.90
16301;DHT22;8258;51.020;4.248;2022-07-10T06:49:46;17.80;99.90
16301;DHT22;8258;51.020;4.248;2022-07-10T06:52:14;17.80;99.90
16301;DHT22;8258;51.020;4.248;2022-07-10T06:54:42;17.90;99.90
16301;DHT22;8258;51.020;4.248;2022-07-10T06:57:11;17.90;99.90
16301;DHT22;8258;51.020;4.248;2022-07-10T06:59:38;18.00;99.90
16301;DHT22;8258;51.020;4.248;2022-07-10T07:02:05;18.20;99.90
16301;DHT22;8258;51.020;4.248;2022-07-10T07:04:32;18.10;99.90
16301;DHT22;8258;51.020;4.248;2022-07-10T07:06:59;18.30;99.90
16301;DHT22;8258;51.020;4.248;2022-07-10T07:09:26;18.80;99.90
16301;DHT22;8258;51.020;4.248;2022-07-10T07:11:53;18.80;99.90
16301;DHT22;8258;51.020;4.248;2022-07-10T07:14:21;19.10;99.90
16301;DHT22;8258;51.020;4.248;2022-07-10T07:16:49;19.30;99.90
16301;DHT22;8258;51.020;4.248;2022-07-10T07:19:24;19.50;99.90
16301;DHT22;8258;51.020;4.248;2022-07-10T07:21:58;19.80;99.90
16301;DHT22;8258;51.020;4.248;2022-07-10T07:24:45;20.10;99.90
16301;DHT22;8258;51.020;4.248;2022-07-10T07:27:12;20.10;99.90
16301;DHT22;8258;51.020;4.248;2022-07-10T07:29:40;20.20;99.90
16301;DHT22;8258;51.020;4.248;2022-07-10T07:32:07;20.40;99.90
16301;DHT22;8258;51.020;4.248;2022-07-10T07:34:34;20.80;99.90
16301;DHT22;8258;51.020;4.248;2022-07-10T07:37:03;20.80;99.90
16301;DHT22;8258;51.020;4.248;2022-07-10T07:39:30;21.00;99.90
16301;DHT22;8258;51.020;4.248;2022-07-10T07:41:57;21.00;99.90
16301;DHT22;8258;51.020;4.248;2022-07-10T07:44:24;21.80;99.90
16301;DHT22;8258;51.020;4.248;2022-07-10T07:46:55;23.30;99.90
16301;DHT22;8258;51.020;4.248;2022-07-10T07:49:22;23.30;99.90
16301;DHT22;8258;51.020;4.248;2022-07-10T07:51:49;22.50;99.90
16301;DHT22;8258;51.020;4.248;2022-07-10T07:54:16;22.00;99.90
16301;DHT22;8258;51.020;4.248;2022-07-10T07:56:43;22.00;99.90
16301;DHT22;8258;51.020;4.248;2022-07-10T07:59:10;22.40;99.90
16301;DHT22;8258;51.020;4.248;2022-07-10T08:01:38;22.10;99.90
16301;DHT22;8258;51.020;4.248;2022-07-10T08:04:07;22.20;99.90
16301;DHT22;8258;51.020;4.248;2022-07-10T08:06:34;22.10;99.90
16301;DHT22;8258;51.020;4.248;2022-07-10T08:09:01;22.10;99.90
16301;DHT22;8258;51.020;4.248;2022-07-10T08:11:28;22.10;99.90
16301;DHT22;8258;51.020;4.248;2022-07-10T08:13:57;22.10;99.90
16301;DHT22;8258;51.020;4.248;2022-07-10T08:16:24;22.20;99.90
16301;DHT22;8258;51.020;4.248;2022-07-10T08:18:50;22.40;99.90
16301;DHT22;8258;51.020;4.248;2022-07-10T08:21:19;22.60;99.90
16301;DHT22;8258;51.020;4.248;2022-07-10T08:23:48;22.20;99.90
16301;DHT22;8258;51.020;4.248;2022-07-10T08:26:14;22.30;99.90
16301;DHT22;8258;51.020;4.248;2022-07-10T08:28:41;22.30;99.90
16301;DHT22;8258;51.020;4.248;2022-07-10T08:31:08;21.70;99.90
16301;DHT22;8258;51.020;4.248;2022-07-10T08:33:35;22.00;99.90
16301;DHT22;8258;51.020;4.248;2022-07-10T08:36:05;22.30;99.90
16301;DHT22;8258;51.020;4.248;2022-07-10T08:38:34;22.40;99.90
16301;DHT22;8258;51.020;4.248;2022-07-10T08:41:01;22.80;99.90
16301;DHT22;8258;51.020;4.248;2022-07-10T08:43:31;23.40;99.90
16301;DHT22;8258;51.020;4.248;2022-07-10T08:45:59;23.70;99.90
16301;DHT22;8258;51.020;4.248;2022-07-10T08:48:27;23.30;99.90
16301;DHT22;8258;51.020;4.248;2022-07-10T08:51:04;23.50;99.90
16301;DHT22;8258;51.020;4.248;2022-07-10T08:53:33;23.90;99.90
16301;DHT22;8258;51.020;4.248;2022-07-10T08:56:01;24.40;99.90
16301;DHT22;8258;51.020;4.248;2022-07-10T08:58:28;23.50;99.90
16301;DHT22;8258;51.020;4.248;2022-07-10T09:00:59;23.60;99.90
16301;DHT22;8258;51.020;4.248;2022-07-10T09:03:26;24.10;99.90
16301;DHT22;8258;51.020;4.248;2022-07-10T09:05:53;24.00;99.90
16301;DHT22;8258;51.020;4.248;2022-07-10T09:08:24;24.30;99.90
16301;DHT22;8258;51.020;4.248;2022-07-10T09:11:13;24.50;99.90
16301;DHT22;8258;51.020;4.248;2022-07-10T09:13:49;25.00;99.90
16301;DHT22;8258;51.020;4.248;2022-07-10T09:16:21;25.30;99.90
16301;DHT22;8258;51.020;4.248;2022-07-10T09:18:48;25.70;99.90
16301;DHT22;8258;51.020;4.248;2022-07-10T09:21:15;25.60;99.90
16301;DHT22;8258;51.020;4.248;2022-07-10T09:23:42;26.00;99.90
16301;DHT22;8258;51.020;4.248;2022-07-10T09:26:10;25.50;99.90
16301;DHT22;8258;51.020;4.248;2022-07-10T09:28:37;26.20;99.90
16301;DHT22;8258;51.020;4.248;2022-07-10T09:31:04;27.10;99.90
16301;DHT22;8258;51.020;4.248;2022-07-10T09:33:32;26.70;99.90
16301;DHT22;8258;51.020;4.248;2022-07-10T09:36:04;25.30;99.90
16301;DHT22;8258;51.020;4.248;2022-07-10T09:38:53;25.20;99.90
16301;DHT22;8258;51.020;4.248;2022-07-10T09:41:26;25.00;99.90
16301;DHT22;8258;51.020;4.248;2022-07-10T09:43:55;24.60;99.90
16301;DHT22;8258;51.020;4.248;2022-07-10T09:46:23;25.50;99.90
16301;DHT22;8258;51.020;4.248;2022-07-10T09:49:05;25.50;99.90
16301;DHT22;8258;51.020;4.248;2022-07-10T09:51:33;25.20;99.90
16301;DHT22;8258;51.020;4.248;2022-07-10T09:54:02;25.00;99.90
16301;DHT22;8258;51.020;4.248;2022-07-10T09:56:39;25.90;99.90
16301;DHT22;8258;51.020;4.248;2022-07-10T09:59:09;26.50;99.90
16301;DHT22;8258;51.020;4.248;2022-07-10T10:01:38;25.80;99.90
16301;DHT22;8258;51.020;4.248;2022-07-10T10:04:08;25.20;99.90
16301;DHT22;8258;51.020;4.248;2022-07-10T10:06:39;25.60;99.90
16301;DHT22;8258;51.020;4.248;2022-07-10T10:09:09;26.00;99.90
16301;DHT22;8258;51.020;4.248;2022-07-10T10:11:41;27.20;99.90
16301;DHT22;8258;51.020;4.248;2022-07-10T10:14:11;28.70;99.40
16301;DHT22;8258;51.020;4.248;2022-07-10T10:16:39;30.30;96.50
16301;DHT22;8258;51.020;4.248;2022-07-10T10:19:10;31.70;94.50
16301;DHT22;8258;51.020;4.248;2022-07-10T10:21:57;32.60;92.60
16301;DHT22;8258;51.020;4.248;2022-07-10T10:24:25;31.90;91.20
16301;DHT22;8258;51.020;4.248;2022-07-10T10:26:54;31.00;91.90
16301;DHT22;8258;51.020;4.248;2022-07-10T10:29:21;30.90;92.50
16301;DHT22;8258;51.020;4.248;2022-07-10T10:31:49;30.00;92.50
16301;DHT22;8258;51.020;4.248;2022-07-10T10:34:42;28.80;94.00
16301;DHT22;8258;51.020;4.248;2022-07-10T10:37:34;29.10;94.20
16301;DHT22;8258;51.020;4.248;2022-07-10T10:40:04;28.60;93.70
16301;DHT22;8258;51.020;4.248;2022-07-10T10:42:39;27.80;95.70
16301;DHT22;8258;51.020;4.248;2022-07-10T10:45:32;27.50;96.10
16301;DHT22;8258;51.020;4.248;2022-07-10T10:48:02;27.10;96.70
16301;DHT22;8258;51.020;4.248;2022-07-10T10:50:40;27.60;96.50
16301;DHT22;8258;51.020;4.248;2022-07-10T10:53:15;27.50;96.70
16301;DHT22;8258;51.020;4.248;2022-07-10T10:56:21;27.70;96.20
16301;DHT22;8258;51.020;4.248;2022-07-10T10:58:50;28.30;95.40
16301;DHT22;8258;51.020;4.248;2022-07-10T11:01:28;28.50;95.90
16301;DHT22;8258;51.020;4.248;2022-07-10T11:04:17;28.20;94.60
16301;DHT22;8258;51.020;4.248;2022-07-10T11:06:46;27.90;95.40
16301;DHT22;8258;51.020;4.248;2022-07-10T11:09:24;27.60;96.10
16301;DHT22;8258;51.020;4.248;2022-07-10T11:12:02;28.00;95.20
16301;DHT22;8258;51.020;4.248;2022-07-10T11:14:33;28.00;95.70
16301;DHT22;8258;51.020;4.248;2022-07-10T11:17:00;28.30;95.30
16301;DHT22;8258;51.020;4.248;2022-07-10T11:19:29;27.50;94.90
16301;DHT22;8258;51.020;4.248;2022-07-10T11:25:29;28.90;94.70
16301;DHT22;8258;51.020;4.248;2022-07-10T11:28:05;29.40;93.10
16301;DHT22;8258;51.020;4.248;2022-07-10T11:30:46;29.90;93.00
16301;DHT22;8258;51.020;4.248;2022-07-10T11:33:14;30.10;92.20
16301;DHT22;8258;51.020;4.248;2022-07-10T11:35:44;30.30;92.40
16301;DHT22;8258;51.020;4.248;2022-07-10T11:38:12;30.30;91.80
16301;DHT22;8258;51.020;4.248;2022-07-10T11:40:39;30.30;92.20
16301;DHT22;8258;51.020;4.248;2022-07-10T11:43:06;30.30;91.80
16301;DHT22;8258;51.020;4.248;2022-07-10T11:45:35;29.10;92.10
16301;DHT22;8258;51.020;4.248;2022-07-10T11:48:05;28.30;93.60
16301;DHT22;8258;51.020;4.248;2022-07-10T11:50:35;29.60;92.80
16301;DHT22;8258;51.020;4.248;2022-07-10T11:53:03;30.30;91.80
16301;DHT22;8258;51.020;4.248;2022-07-10T11:55:30;30.00;92.40
16301;DHT22;8258;51.020;4.248;2022-07-10T11:58:12;30.40;91.10
16301;DHT22;8258;51.020;4.248;2022-07-10T12:00:39;29.10;92.20
16301;DHT22;8258;51.020;4.248;2022-07-10T12:03:18;29.20;92.70
16301;DHT22;8258;51.020;4.248;2022-07-10T12:05:47;29.60;92.80
16301;DHT22;8258;51.020;4.248;2022-07-10T12:08:14;29.40;93.10
16301;DHT22;8258;51.020;4.248;2022-07-10T12:10:41;28.90;93.30
16301;DHT22;8258;51.020;4.248;2022-07-10T12:13:09;28.90;93.00
16301;DHT22;8258;51.020;4.248;2022-07-10T12:15:39;29.50;92.00
16301;DHT22;8258;51.020;4.248;2022-07-10T12:18:07;30.10;91.80
16301;DHT22;8258;51.020;4.248;2022-07-10T12:20:36;29.50;92.30
16301;DHT22;8258;51.020;4.248;2022-07-10T12:23:04;28.50;93.50
16301;DHT22;8258;51.020;4.248;2022-07-10T12:25:31;28.90;92.90
16301;DHT22;8258;51.020;4.248;2022-07-10T12:27:58;28.90;93.30
16301;DHT22;8258;51.020;4.248;2022-07-10T12:30:42;28.60;93.50
16301;DHT22;8258;51.020;4.248;2022-07-10T12:33:10;28.00;94.10
16301;DHT22;8258;51.020;4.248;2022-07-10T12:35:54;28.70;94.50
16301;DHT22;8258;51.020;4.248;2022-07-10T12:38:22;29.70;92.30
16301;DHT22;8258;51.020;4.248;2022-07-10T12:40:50;30.10;92.10
16301;DHT22;8258;51.020;4.248;2022-07-10T12:43:27;30.30;92.00
16301;DHT22;8258;51.020;4.248;2022-07-10T12:46:14;30.80;91.70
16301;DHT22;8258;51.020;4.248;2022-07-10T12:48:42;30.70;91.10
16301;DHT22;8258;51.020;4.248;2022-07-10T12:51:21;30.20;90.90
16301;DHT22;8258;51.020;4.248;2022-07-10T12:53:48;30.20;91.20
16301;DHT22;8258;51.020;4.248;2022-07-10T12:56:30;29.70;91.20
16301;DHT22;8258;51.020;4.248;2022-07-10T12:58:58;29.80;91.60
16301;DHT22;8258;51.020;4.248;2022-07-10T13:01:26;29.10;91.80
16301;DHT22;8258;51.020;4.248;2022-07-10T13:03:58;29.50;91.80
16301;DHT22;8258;51.020;4.248;2022-07-10T13:06:28;30.20;90.90
16301;DHT22;8258;51.020;4.248;2022-07-10T13:08:56;30.50;90.00
16301;DHT22;8258;51.020;4.248;2022-07-10T13:11:23;29.80;91.30
16301;DHT22;8258;51.020;4.248;2022-07-10T13:13:50;30.10;91.10
16301;DHT22;8258;51.020;4.248;2022-07-10T13:16:17;30.30;91.10
16301;DHT22;8258;51.020;4.248;2022-07-10T13:18:45;30.30;90.80
16301;DHT22;8258;51.020;4.248;2022-07-10T13:21:12;30.10;91.40
16301;DHT22;8258;51.020;4.248;2022-07-10T13:23:41;30.50;90.20
16301;DHT22;8258;51.020;4.248;2022-07-10T13:26:08;30.90;90.40
16301;DHT22;8258;51.020;4.248;2022-07-10T13:28:35;30.40;89.40
16301;DHT22;8258;51.020;4.248;2022-07-10T13:31:04;29.80;91.60
16301;DHT22;8258;51.020;4.248;2022-07-10T13:33:33;29.90;91.60
16301;DHT22;8258;51.020;4.248;2022-07-10T13:36:01;29.80;91.00
16301;DHT22;8258;51.020;4.248;2022-07-10T13:38:28;30.40;91.40
16301;DHT22;8258;51.020;4.248;2022-07-10T13:40:57;31.30;88.50
16301;DHT22;8258;51.020;4.248;2022-07-10T13:43:24;31.60;88.40
16301;DHT22;8258;51.020;4.248;2022-07-10T13:45:56;32.40;86.80
16301;DHT22;8258;51.020;4.248;2022-07-10T13:48:23;32.70;86.20
16301;DHT22;8258;51.020;4.248;2022-07-10T13:50:52;33.90;83.10
16301;DHT22;8258;51.020;4.248;2022-07-10T13:53:19;34.30;80.50
16301;DHT22;8258;51.020;4.248;2022-07-10T13:55:47;34.10;80.30
16301;DHT22;8258;51.020;4.248;2022-07-10T13:58:16;33.50;80.90
16301;DHT22;8258;51.020;4.248;2022-07-10T14:00:43;32.40;82.90
16301;DHT22;8258;51.020;4.248;2022-07-10T14:03:10;31.90;84.60
16301;DHT22;8258;51.020;4.248;2022-07-10T14:05:37;31.70;83.90
16301;DHT22;8258;51.020;4.248;2022-07-10T14:08:04;31.20;84.00
16301;DHT22;8258;51.020;4.248;2022-07-10T14:10:31;32.10;82.70
16301;DHT22;8258;51.020;4.248;2022-07-10T14:12:58;32.30;82.00
16301;DHT22;8258;51.020;4.248;2022-07-10T14:15:27;31.80;82.70
16301;DHT22;8258;51.020;4.248;2022-07-10T14:17:54;31.80;82.10
16301;DHT22;8258;51.020;4.248;2022-07-10T14:20:21;32.60;81.00
16301;DHT22;8258;51.020;4.248;2022-07-10T14:22:48;34.60;77.90
16301;DHT22;8258;51.020;4.248;2022-07-10T14:25:16;34.50;77.50
16301;DHT22;8258;51.020;4.248;2022-07-10T14:27:43;33.50;78.10
16301;DHT22;8258;51.020;4.248;2022-07-10T14:30:10;32.70;78.40
16301;DHT22;8258;51.020;4.248;2022-07-10T14:32:39;33.40;78.30
16301;DHT22;8258;51.020;4.248;2022-07-10T14:35:06;34.50;75.70
16301;DHT22;8258;51.020;4.248;2022-07-10T14:37:34;33.60;76.20
16301;DHT22;8258;51.020;4.248;2022-07-10T14:40:01;31.80;81.30
16301;DHT22;8258;51.020;4.248;2022-07-10T14:42:28;31.70;82.20
16301;DHT22;8258;51.020;4.248;2022-07-10T14:44:55;33.00;79.60
16301;DHT22;8258;51.020;4.248;2022-07-10T14:47:21;33.40;77.40
16301;DHT22;8258;51.020;4.248;2022-07-10T14:49:50;32.70;76.90
16301;DHT22;8258;51.020;4.248;2022-07-10T14:52:17;32.30;81.40
16301;DHT22;8258;51.020;4.248;2022-07-10T14:54:47;33.20;79.20
16301;DHT22;8258;51.020;4.248;2022-07-10T14:57:15;34.40;76.40
16301;DHT22;8258;51.020;4.248;2022-07-10T14:59:42;35.00;75.30
16301;DHT22;8258;51.020;4.248;2022-07-10T15:02:09;35.50;74.00
16301;DHT22;8258;51.020;4.248;2022-07-10T15:07:30;32.80;76.40
16301;DHT22;8258;51.020;4.248;2022-07-10T15:09:57;32.70;77.10
16301;DHT22;8258;51.020;4.248;2022-07-10T15:12:24;33.00;75.80
16301;DHT22;8258;51.020;4.248;2022-07-10T15:14:51;32.10;76.60
16301;DHT22;8258;51.020;4.248;2022-07-10T15:17:18;32.60;77.80
16301;DHT22;8258;51.020;4.248;2022-07-10T15:19:45;32.80;76.10
16301;DHT22;8258;51.020;4.248;2022-07-10T15:22:12;31.20;78.30
16301;DHT22;8258;51.020;4.248;2022-07-10T15:24:41;30.00;82.60
16301;DHT22;8258;51.020;4.248;2022-07-10T15:27:09;30.70;82.00
16301;DHT22;8258;51.020;4.248;2022-07-10T15:29:36;31.70;80.30
16301;DHT22;8258;51.020;4.248;2022-07-10T15:32:04;32.40;78.10
16301;DHT22;8258;51.020;4.248;2022-07-10T15:34:31;33.10;76.50
16301;DHT22;8258;51.020;4.248;2022-07-10T15:36:58;32.30;76.70
16301;DHT22;8258;51.020;4.248;2022-07-10T15:39:25;31.70;78.60
16301;DHT22;8258;51.020;4.248;2022-07-10T15:41:54;31.70;80.00
16301;DHT22;8258;51.020;4.248;2022-07-10T15:44:21;32.50;78.00
16301;DHT22;8258;51.020;4.248;2022-07-10T15:46:48;33.60;75.00
16301;DHT22;8258;51.020;4.248;2022-07-10T15:49:15;33.20;73.00
16301;DHT22;8258;51.020;4.248;2022-07-10T15:51:42;33.30;73.50
16301;DHT22;8258;51.020;4.248;2022-07-10T15:54:09;33.80;73.30
16301;DHT22;8258;51.020;4.248;2022-07-10T15:56:36;33.90;73.70
16301;DHT22;8258;51.020;4.248;2022-07-10T15:59:04;33.80;73.20
16301;DHT22;8258;51.020;4.248;2022-07-10T16:01:31;32.90;74.50